createdAt,value
2023-04-18T00:00:21.663Z,6.2551
2023-04-18T00:01:29.781Z,7.0475
2023-04-18T00:02:38.003Z,6.5935
2023-04-18T00:03:46.080Z,6.7903
2023-04-18T00:04:54.032Z,6.7223
2023-04-18T00:06:01.845Z,6.8414
2023-04-18T00:07:10.076Z,6.9161
2023-04-18T00:08:17.968Z,7.1379
2023-04-18T00:09:26.378Z,7.1025
2023-04-18T00:10:34.230Z,6.9520
2023-04-18T00:11:42.148Z,6.8865
2023-04-18T00:12:50.402Z,7.2234
2023-04-18T00:13:58.460Z,6.5753
2023-04-18T00:15:06.463Z,6.4781
2023-04-18T00:16:14.593Z,6.5610
2023-04-18T00:17:22.696Z,6.5422
2023-04-18T00:18:30.704Z,6.5721
2023-04-18T00:19:38.780Z,6.2240
2023-04-18T00:20:46.782Z,6.4058
2023-04-18T00:21:54.847Z,6.4413
2023-04-18T00:23:02.767Z,6.7229
2023-04-18T00:24:11.052Z,6.8298
2023-04-18T00:25:18.907Z,6.2334
2023-04-18T00:26:27.231Z,6.3946
2023-04-18T00:27:35.159Z,6.4557
2023-04-18T00:28:43.415Z,6.7703
2023-04-18T00:29:51.305Z,6.7746
2023-04-18T00:30:59.357Z,7.0056
2023-04-18T00:32:07.433Z,6.6317
2023-04-18T00:33:15.482Z,6.8603
2023-04-18T00:34:23.625Z,6.8135
2023-04-18T00:35:31.547Z,6.9655
2023-04-18T00:36:39.687Z,6.8299
2023-04-18T00:37:47.739Z,6.3873
2023-04-18T00:38:55.982Z,6.9552
2023-04-18T00:40:03.730Z,6.8466
2023-04-18T00:41:11.910Z,6.6408
2023-04-18T00:42:19.887Z,7.0964
2023-04-18T00:43:28.321Z,6.7885
2023-04-18T00:44:36.155Z,6.6425
2023-04-18T00:45:44.201Z,6.6669
2023-04-18T00:46:52.263Z,6.8060
2023-04-18T00:48:00.391Z,6.7667
2023-04-18T00:49:08.355Z,6.9439
2023-04-18T00:50:16.449Z,6.7677
2023-04-18T00:51:24.566Z,7.0899
2023-04-18T00:52:32.535Z,7.2289
2023-04-18T00:53:40.663Z,6.8991
2023-04-18T00:54:48.702Z,6.7958
2023-04-18T00:55:56.850Z,6.9150
2023-04-18T00:57:04.687Z,6.6866
2023-04-18T00:58:12.871Z,6.6858
2023-04-18T00:59:21.009Z,6.8850
2023-04-18T01:00:29.058Z,7.1124
2023-04-18T01:01:37.141Z,6.9531
2023-04-18T01:02:45.313Z,7.3411
2023-04-18T01:03:53.353Z,7.0518
2023-04-18T01:05:01.496Z,7.1900
2023-04-18T01:06:09.329Z,7.0797
2023-04-18T01:07:17.518Z,7.9625
2023-04-18T01:08:25.362Z,7.3552
2023-04-18T01:09:33.564Z,6.9626
2023-04-18T01:10:41.761Z,7.0918
2023-04-18T01:11:49.683Z,6.7246
2023-04-18T01:12:57.903Z,6.7168
2023-04-18T01:14:05.804Z,6.9525
2023-04-18T01:15:14.186Z,6.8832
2023-04-18T01:16:21.888Z,7.2686
2023-04-18T01:17:30.186Z,6.8806
2023-04-18T01:18:38.095Z,7.2467
2023-04-18T01:19:46.114Z,7.4570
2023-04-18T01:20:54.211Z,7.1308
2023-04-18T01:22:02.366Z,7.2417
2023-04-18T01:23:10.184Z,6.8175
2023-04-18T01:24:18.379Z,7.4639
2023-04-18T01:25:26.538Z,6.9160
2023-04-18T01:26:34.509Z,7.0793
2023-04-18T01:27:42.654Z,7.1420
2023-04-18T01:28:50.602Z,7.3381
2023-04-18T01:29:58.712Z,7.4899
2023-04-18T01:31:06.788Z,7.4088
2023-04-18T01:32:14.997Z,7.4342
2023-04-18T01:33:23.033Z,7.4708
2023-04-18T01:34:30.838Z,7.5369
2023-04-18T01:35:39.024Z,7.5217
2023-04-18T01:36:47.087Z,7.0325
2023-04-18T01:37:55.190Z,7.1932
2023-04-18T01:39:03.254Z,7.6934
2023-04-18T01:40:11.152Z,7.5924
2023-04-18T01:41:19.439Z,7.5648
2023-04-18T01:42:27.410Z,7.6395
2023-04-18T01:43:35.446Z,7.8511
2023-04-18T01:44:43.588Z,7.2083
2023-04-18T01:45:51.442Z,7.2779
2023-04-18T01:46:59.682Z,7.6213
2023-04-18T01:48:07.755Z,7.4956
2023-04-18T01:49:15.791Z,7.5878
2023-04-18T01:50:23.867Z,7.7075
2023-04-18T01:51:32.047Z,8.1952
2023-04-18T01:52:39.974Z,8.0113
2023-04-18T01:53:47.933Z,7.5727
2023-04-18T01:54:56.238Z,7.9848
2023-04-18T01:56:04.189Z,7.5488
2023-04-18T01:57:12.124Z,7.8437
2023-04-18T01:58:20.311Z,7.8653
2023-04-18T01:59:28.253Z,7.9763
2023-04-18T02:00:36.482Z,8.1183
2023-04-18T02:01:44.682Z,8.2821
2023-04-18T02:02:52.569Z,8.0204
2023-04-18T02:04:00.755Z,7.7986
2023-04-18T02:05:08.576Z,7.8249
2023-04-18T02:06:16.771Z,8.2452
2023-04-18T02:07:24.868Z,8.3490
2023-04-18T02:08:32.895Z,8.3340
2023-04-18T02:09:40.979Z,8.4630
2023-04-18T02:10:48.911Z,8.8628
2023-04-18T02:11:57.147Z,9.0338
2023-04-18T02:13:05.288Z,8.5931
2023-04-18T02:14:13.403Z,8.6428
2023-04-18T02:15:21.368Z,8.5335
2023-04-18T02:16:29.394Z,8.5100
2023-04-18T02:17:37.518Z,9.1767
2023-04-18T02:18:45.501Z,8.6764
2023-04-18T02:19:53.593Z,8.9249
2023-04-18T02:21:01.634Z,9.2744
2023-04-18T02:22:09.688Z,8.4428
2023-04-18T02:23:17.843Z,9.1409
2023-04-18T02:24:25.825Z,8.8521
2023-04-18T02:25:33.901Z,8.8420
2023-04-18T02:26:42.001Z,8.5826
2023-04-18T02:27:50.051Z,8.6835
2023-04-18T02:28:58.266Z,9.1233
2023-04-18T02:30:06.302Z,8.9956
2023-04-18T02:31:14.119Z,9.1252
2023-04-18T02:32:22.346Z,9.5413
2023-04-18T02:33:30.406Z,9.0661
2023-04-18T02:34:38.528Z,8.6572
2023-04-18T02:35:46.500Z,9.1269
2023-04-18T02:36:54.439Z,9.0752
2023-04-18T02:38:02.777Z,8.9902
2023-04-18T02:39:10.876Z,8.9737
2023-04-18T02:40:18.660Z,9.2160
2023-04-18T02:41:26.836Z,9.0428
2023-04-18T02:42:34.925Z,9.4806
2023-04-18T02:43:42.963Z,8.9942
2023-04-18T02:44:51.019Z,8.6943
2023-04-18T02:45:59.161Z,9.0970
2023-04-18T02:47:07.218Z,9.6460
2023-04-18T02:48:15.261Z,9.8875
2023-04-18T02:49:23.389Z,9.1861
2023-04-18T02:50:31.296Z,9.2467
2023-04-18T02:51:39.413Z,8.9015
2023-04-18T02:52:47.436Z,9.8011
2023-04-18T02:53:55.388Z,9.0866
2023-04-18T02:55:03.578Z,10.2324
2023-04-18T02:56:11.827Z,9.6820
2023-04-18T02:57:19.599Z,9.7505
2023-04-18T02:58:27.782Z,9.8812
2023-04-18T02:59:35.952Z,10.0609
2023-04-18T03:00:43.949Z,10.4639
2023-04-18T03:01:51.943Z,10.4344
2023-04-18T03:03:00.216Z,9.8277
2023-04-18T03:04:08.054Z,10.2827
2023-04-18T03:05:16.128Z,10.6762
2023-04-18T03:06:24.207Z,10.7485
2023-04-18T03:07:32.237Z,10.3859
2023-04-18T03:08:40.228Z,10.1829
2023-04-18T03:09:48.396Z,10.1555
2023-04-18T03:10:56.514Z,10.5020
2023-04-18T03:12:04.582Z,11.2213
2023-04-18T03:13:12.597Z,11.3418
2023-04-18T03:14:20.702Z,11.0992
2023-04-18T03:15:28.676Z,10.5530
2023-04-18T03:16:36.755Z,11.1447
2023-04-18T03:17:44.707Z,10.7530
2023-04-18T03:18:53.015Z,10.0205
2023-04-18T03:20:00.862Z,10.2973
2023-04-18T03:21:09.027Z,10.5538
2023-04-18T03:22:17.059Z,11.1217
2023-04-18T03:23:25.092Z,11.2221
2023-04-18T03:24:33.174Z,11.6160
2023-04-18T03:25:41.291Z,11.3182
2023-04-18T03:26:49.334Z,10.8935
2023-04-18T03:27:57.405Z,11.1567
2023-04-18T03:29:05.306Z,11.6635
2023-04-18T03:30:13.534Z,11.2613
2023-04-18T03:31:21.625Z,11.3552
2023-04-18T03:32:29.664Z,11.9919
2023-04-18T03:33:37.684Z,11.3619
2023-04-18T03:34:45.856Z,10.8868
2023-04-18T03:35:53.828Z,11.3475
2023-04-18T03:37:01.844Z,11.1564
2023-04-18T03:38:09.974Z,11.6609
2023-04-18T03:39:18.013Z,11.1109
2023-04-18T03:40:26.104Z,11.9319
2023-04-18T03:41:34.137Z,11.8632
2023-04-18T03:42:42.259Z,11.0000
2023-04-18T03:43:50.227Z,11.5122
2023-04-18T03:44:58.388Z,11.3122
2023-04-18T03:46:06.563Z,11.4988
2023-04-18T03:47:14.459Z,11.4735
2023-04-18T03:48:22.427Z,11.1899
2023-04-18T03:49:30.647Z,11.0157
2023-04-18T03:50:38.672Z,11.3297
2023-04-18T03:51:46.692Z,11.7509
2023-04-18T03:52:54.797Z,11.0024
2023-04-18T03:54:02.740Z,11.2193
2023-04-18T03:55:11.156Z,11.2331
2023-04-18T03:56:18.936Z,11.3907
2023-04-18T03:57:27.234Z,11.0996
2023-04-18T03:58:35.113Z,11.6599
2023-04-18T03:59:43.212Z,11.7391
2023-04-18T04:00:51.280Z,11.5613
2023-04-18T04:01:59.353Z,11.6687
2023-04-18T04:03:07.527Z,11.7348
2023-04-18T04:04:15.777Z,11.8930
2023-04-18T04:05:23.546Z,11.6608
2023-04-18T04:06:31.499Z,11.7165
2023-04-18T04:07:39.531Z,11.7166
2023-04-18T04:08:47.608Z,11.8279
2023-04-18T04:09:55.680Z,11.6652
2023-04-18T04:11:03.829Z,11.1914
2023-04-18T04:12:11.872Z,11.2089
2023-04-18T04:13:20.009Z,11.3695
2023-04-18T04:14:27.859Z,11.6109
2023-04-18T04:15:36.029Z,11.6739
2023-04-18T04:16:44.148Z,11.8240
2023-04-18T04:17:52.182Z,11.2548
2023-04-18T04:19:00.190Z,12.3067
2023-04-18T04:20:08.230Z,12.0692
2023-04-18T04:21:16.300Z,11.7876
2023-04-18T04:22:24.435Z,12.0414
2023-04-18T04:23:32.429Z,11.8314
2023-04-18T04:24:40.614Z,11.4541
2023-04-18T04:25:48.537Z,11.3283
2023-04-18T04:26:56.653Z,12.0210
2023-04-18T04:28:04.750Z,12.6249
2023-04-18T04:29:12.752Z,12.2147
2023-04-18T04:30:20.803Z,11.8002
2023-04-18T04:31:28.883Z,11.9039
2023-04-18T04:32:37.021Z,12.7579
2023-04-18T04:33:45.046Z,12.1033
2023-04-18T04:34:53.042Z,13.2171
2023-04-18T04:36:01.256Z,11.9797
2023-04-18T04:37:09.188Z,11.8471
2023-04-18T04:38:17.291Z,12.0324
2023-04-18T04:39:25.396Z,12.6259
2023-04-18T04:40:33.380Z,12.4738
2023-04-18T04:41:41.494Z,12.8843
2023-04-18T04:42:49.494Z,12.3605
2023-04-18T04:43:57.527Z,12.0845
2023-04-18T04:45:05.779Z,12.5637
2023-04-18T04:46:13.718Z,12.6426
2023-04-18T04:47:21.746Z,12.2995
2023-04-18T04:48:29.800Z,12.7153
2023-04-18T04:49:37.938Z,12.3376
2023-04-18T04:50:46.035Z,12.3977
2023-04-18T04:51:53.924Z,12.5554
2023-04-18T04:53:02.104Z,12.2992
2023-04-18T04:54:10.223Z,12.6489
2023-04-18T04:55:18.174Z,12.2142
2023-04-18T04:56:26.273Z,12.5252
2023-04-18T04:57:34.336Z,12.1686
2023-04-18T04:58:42.391Z,13.1610
2023-04-18T04:59:50.438Z,12.5911
2023-04-18T05:00:58.462Z,12.9322
2023-04-18T05:02:06.669Z,12.8643
2023-04-18T05:03:14.933Z,12.5715
2023-04-18T05:04:22.843Z,13.1786
2023-04-18T05:05:30.744Z,15.2041
2023-04-18T05:06:40.306Z,14.6136
2023-04-18T05:07:46.946Z,14.7145
2023-04-18T05:08:55.029Z,15.6127
2023-04-18T05:10:03.135Z,15.6023
2023-04-18T05:11:11.139Z,15.7472
2023-04-18T05:12:19.205Z,15.2109
2023-04-18T05:13:27.419Z,14.7516
2023-04-18T05:14:35.285Z,14.2484
2023-04-18T05:15:43.387Z,14.7516
2023-04-18T05:16:51.479Z,14.4644
2023-04-18T05:17:59.533Z,14.2679
2023-04-18T05:19:07.615Z,13.3384
2023-04-18T05:20:15.576Z,13.1174
2023-04-18T05:21:23.682Z,13.8078
2023-04-18T05:22:31.748Z,13.3108
2023-04-18T05:23:39.846Z,13.4873
2023-04-18T05:24:48.054Z,13.3692
2023-04-18T05:25:56.176Z,13.6509
2023-04-18T05:27:04.021Z,13.5455
2023-04-18T05:28:12.069Z,13.8663
2023-04-18T05:29:20.123Z,13.1674
2023-04-18T05:30:28.208Z,13.3748
2023-04-18T05:31:36.313Z,13.3186
2023-04-18T05:32:44.366Z,13.5027
2023-04-18T05:33:52.483Z,13.5059
2023-04-18T05:35:00.492Z,13.5633
2023-04-18T05:36:08.535Z,12.6638
2023-04-18T05:37:16.566Z,13.3462
2023-04-18T05:38:24.629Z,13.1420
2023-04-18T05:39:32.702Z,13.7447
2023-04-18T05:40:40.762Z,13.4503
2023-04-18T05:41:48.849Z,13.2958
2023-04-18T05:42:56.892Z,13.4744
2023-04-18T05:44:05.929Z,13.5882
2023-04-18T05:45:13.013Z,13.1254
2023-04-18T05:46:21.077Z,13.2574
2023-04-18T05:47:29.228Z,12.9954
2023-04-18T05:48:37.226Z,13.1076
2023-04-18T05:49:45.229Z,12.8464
2023-04-18T05:50:53.332Z,13.2862
2023-04-18T05:52:01.384Z,12.7648
2023-04-18T05:53:09.532Z,13.5629
2023-04-18T05:54:17.606Z,13.7075
2023-04-18T05:55:25.546Z,13.9985
2023-04-18T05:56:33.679Z,13.4456
2023-04-18T05:57:41.776Z,13.1478
2023-04-18T05:58:49.820Z,14.1098
2023-04-18T05:59:57.868Z,13.3778
2023-04-18T06:01:05.848Z,13.7055
2023-04-18T06:02:14.039Z,14.2649
2023-04-18T06:03:22.280Z,14.0031
2023-04-18T06:04:30.412Z,14.0412
2023-04-18T06:05:38.356Z,14.2217
2023-04-18T06:06:46.248Z,13.9051
2023-04-18T06:07:54.305Z,13.9046
2023-04-18T06:09:02.444Z,14.0913
2023-04-18T06:10:10.459Z,14.3447
2023-04-18T06:11:18.424Z,14.5543
2023-04-18T06:12:26.485Z,13.9633
2023-04-18T06:13:34.631Z,14.4576
2023-04-18T06:14:42.729Z,14.5950
2023-04-18T06:15:50.726Z,13.8782
2023-04-18T06:16:58.825Z,13.6053
2023-04-18T06:18:06.875Z,13.7324
2023-04-18T06:19:14.969Z,14.4218
2023-04-18T06:20:23.114Z,13.9515
2023-04-18T06:21:31.076Z,14.3760
2023-04-18T06:22:39.154Z,14.3548
2023-04-18T06:23:47.335Z,13.6340
2023-04-18T06:24:55.280Z,14.5364
2023-04-18T06:26:03.381Z,14.4781
2023-04-18T06:27:20.731Z,14.5009
2023-04-18T06:28:24.358Z,14.4507
2023-04-18T06:29:32.346Z,14.1430
2023-04-18T06:30:40.469Z,14.1227
2023-04-18T06:31:48.648Z,14.6517
2023-04-18T06:32:56.584Z,14.4187
2023-04-18T06:34:04.671Z,14.1863
2023-04-18T06:35:12.840Z,14.5719
2023-04-18T06:36:20.810Z,13.9929
2023-04-18T06:37:28.817Z,14.5670
2023-04-18T06:38:36.895Z,14.8435
2023-04-18T06:39:45.216Z,14.3061
2023-04-18T06:40:53.053Z,14.0791
2023-04-18T06:42:01.142Z,13.3546
2023-04-18T06:43:09.232Z,14.7566
2023-04-18T06:44:17.307Z,14.8824
2023-04-18T06:45:25.403Z,14.7581
2023-04-18T06:46:33.391Z,14.7300
2023-04-18T06:47:41.414Z,14.3923
2023-04-18T06:48:51.047Z,14.7917
2023-04-18T06:49:57.571Z,13.9828
2023-04-18T06:51:05.695Z,13.8552
2023-04-18T06:52:13.734Z,14.6058
2023-04-18T06:53:21.671Z,14.3834
2023-04-18T06:54:29.844Z,14.9686
2023-04-18T06:55:37.997Z,14.9954
2023-04-18T06:56:45.976Z,14.6811
2023-04-18T06:57:54.025Z,15.4388
2023-04-18T06:59:02.140Z,15.1265
2023-04-18T07:00:10.098Z,15.7209
2023-04-18T07:01:18.373Z,14.9406
2023-04-18T07:02:26.356Z,14.4895
2023-04-18T07:03:34.391Z,14.1811
2023-04-18T07:04:42.366Z,15.0489
2023-04-18T07:05:50.502Z,14.1452
2023-04-18T07:06:58.561Z,14.0472
2023-04-18T07:08:06.570Z,14.5425
2023-04-18T07:09:14.630Z,13.8929
2023-04-18T07:10:22.592Z,14.7006
2023-04-18T07:11:30.790Z,14.7313
2023-04-18T07:12:38.734Z,14.8551
2023-04-18T07:13:46.785Z,15.6139
2023-04-18T07:14:54.907Z,14.8257
2023-04-18T07:16:02.953Z,14.6746
2023-04-18T07:17:11.204Z,14.7903
2023-04-18T07:18:30.262Z,15.5610
2023-04-18T07:19:32.054Z,14.9957
2023-04-18T07:20:40.068Z,15.9202
2023-04-18T07:21:48.204Z,15.7587
2023-04-18T07:22:56.246Z,15.4556
2023-04-18T07:24:04.264Z,15.2594
2023-04-18T07:25:12.222Z,15.9804
2023-04-18T07:26:20.379Z,16.0594
2023-04-18T07:27:28.463Z,15.8211
2023-04-18T07:28:36.532Z,15.9944
2023-04-18T07:29:44.570Z,16.5911
2023-04-18T07:30:52.583Z,15.9428
2023-04-18T07:32:00.687Z,15.4268
2023-04-18T07:33:08.814Z,15.4365
2023-04-18T07:34:16.836Z,15.7069
2023-04-18T07:35:24.856Z,16.8322
2023-04-18T07:36:32.860Z,17.1186
2023-04-18T07:37:41.115Z,16.7439
2023-04-18T07:38:49.065Z,16.9364
2023-04-18T07:39:57.143Z,17.4660
2023-04-18T07:41:05.180Z,17.2993
2023-04-18T07:42:13.190Z,17.6724
2023-04-18T07:43:21.312Z,17.4663
2023-04-18T07:44:29.382Z,16.6056
2023-04-18T07:45:37.494Z,16.8433
2023-04-18T07:46:45.604Z,17.0657
2023-04-18T07:47:53.557Z,16.0806
2023-04-18T07:49:01.646Z,16.7271
2023-04-18T07:50:09.704Z,16.5791
2023-04-18T07:51:17.730Z,16.5705
2023-04-18T07:52:25.840Z,17.0689
2023-04-18T07:53:33.820Z,16.9079
2023-04-18T07:54:41.923Z,17.5016
2023-04-18T07:55:50.330Z,17.1844
2023-04-18T07:56:58.169Z,17.4438
2023-04-18T07:58:06.148Z,16.8665
2023-04-18T07:59:14.325Z,16.4514
2023-04-18T08:00:22.183Z,16.9369
2023-04-18T08:01:30.313Z,17.4295
2023-04-18T08:02:38.572Z,17.3443
2023-04-18T08:03:46.577Z,16.5267
2023-04-18T08:04:54.980Z,17.0827
2023-04-18T08:06:02.585Z,18.2394
2023-04-18T08:07:10.676Z,17.1288
2023-04-18T08:08:18.853Z,18.2900
2023-04-18T08:09:26.729Z,19.5397
2023-04-18T08:10:34.720Z,19.6566
2023-04-18T08:11:42.867Z,17.3341
2023-04-18T08:12:50.942Z,17.5508
2023-04-18T08:13:59.036Z,17.1658
2023-04-18T08:15:07.076Z,16.8907
2023-04-18T08:16:17.359Z,15.9443
2023-04-18T08:17:23.207Z,16.8287
2023-04-18T08:18:31.248Z,16.7585
2023-04-18T08:19:39.205Z,16.4656
2023-04-18T08:20:47.517Z,16.3948
2023-04-18T08:21:55.442Z,16.6731
2023-04-18T08:23:08.642Z,16.4940
2023-04-18T08:24:16.376Z,16.9413
2023-04-18T08:25:24.515Z,16.6599
2023-04-18T08:26:32.554Z,16.3081
2023-04-18T08:27:40.678Z,16.7110
2023-04-18T08:28:48.554Z,16.2601
2023-04-18T08:29:56.810Z,17.1023
2023-04-18T08:31:04.743Z,16.9681
2023-04-18T08:32:12.901Z,16.5616
2023-04-18T08:33:20.901Z,16.8344
2023-04-18T08:34:28.935Z,16.5136
2023-04-18T08:35:36.957Z,16.2386
2023-04-18T08:36:45.046Z,17.3154
2023-04-18T08:37:53.019Z,17.5942
2023-04-18T08:39:01.203Z,17.7394
2023-04-18T08:40:09.163Z,18.0375
2023-04-18T08:41:17.415Z,17.6847
2023-04-18T08:42:25.396Z,18.4796
2023-04-18T08:43:33.326Z,18.9391
2023-04-18T08:44:41.475Z,18.4636
2023-04-18T08:45:49.434Z,16.6256
2023-04-18T08:46:57.640Z,16.6803
2023-04-18T08:48:05.586Z,16.8087
2023-04-18T08:49:13.798Z,17.0946
2023-04-18T08:50:21.823Z,17.6458
2023-04-18T08:51:29.770Z,17.1073
2023-04-18T08:52:38.020Z,17.4153
2023-04-18T08:53:46.030Z,17.5367
2023-04-18T08:54:53.969Z,16.9462
2023-04-18T08:56:02.022Z,17.0105
2023-04-18T08:57:10.029Z,16.3472
2023-04-18T08:58:18.087Z,16.5235
2023-04-18T08:59:26.185Z,16.9369
2023-04-18T09:00:34.160Z,17.9921
2023-04-18T09:01:42.313Z,17.1662
2023-04-18T09:02:50.437Z,16.1227
2023-04-18T09:03:58.504Z,16.4726
2023-04-18T09:05:06.466Z,15.2435
2023-04-18T09:06:14.442Z,16.2990
2023-04-18T09:07:22.613Z,16.0212
2023-04-18T09:08:30.747Z,16.0354
2023-04-18T09:09:38.690Z,15.8728
2023-04-18T09:10:46.913Z,15.6630
2023-04-18T09:11:54.716Z,16.0480
2023-04-18T09:13:02.890Z,15.7339
2023-04-18T09:14:11.240Z,14.7706
2023-04-18T09:15:19.003Z,15.2984
2023-04-18T09:16:27.125Z,15.1426
2023-04-18T09:17:35.118Z,16.2610
2023-04-18T09:18:43.228Z,16.2158
2023-04-18T09:19:51.348Z,16.4813
2023-04-18T09:20:59.440Z,16.5087
2023-04-18T09:22:07.397Z,16.7702
2023-04-18T09:23:15.399Z,16.9460
2023-04-18T09:24:23.688Z,17.2340
2023-04-18T09:25:31.717Z,16.9141
2023-04-18T09:26:39.623Z,17.3126
2023-04-18T09:27:47.718Z,17.1793
2023-04-18T09:28:55.674Z,16.6974
2023-04-18T09:30:03.876Z,17.6086
2023-04-18T09:31:12.188Z,19.7275
2023-04-18T09:32:19.992Z,17.9004
2023-04-18T09:33:28.117Z,16.6101
2023-04-18T09:34:35.965Z,16.9885
2023-04-18T09:35:44.177Z,16.1990
2023-04-18T09:36:52.292Z,16.2780
2023-04-18T09:38:00.349Z,16.4974
2023-04-18T09:39:08.297Z,16.1519
2023-04-18T09:40:16.264Z,15.5555
2023-04-18T09:41:24.403Z,15.4848
2023-04-18T09:42:32.486Z,15.8958
2023-04-18T09:43:40.404Z,16.0874
2023-04-18T09:44:48.486Z,16.3204
2023-04-18T09:45:56.617Z,16.1679
2023-04-18T09:47:04.715Z,15.9735
2023-04-18T09:48:12.781Z,17.9088
2023-04-18T09:49:20.713Z,17.6103
2023-04-18T09:50:28.838Z,18.0014
2023-04-18T09:51:36.949Z,17.6758
2023-04-18T09:52:45.301Z,17.2921
2023-04-18T09:53:53.037Z,17.2109
2023-04-18T09:55:01.210Z,18.1636
2023-04-18T09:56:09.197Z,17.4038
2023-04-18T09:57:17.186Z,17.0075
2023-04-18T09:58:25.205Z,17.5906
2023-04-18T09:59:33.191Z,17.8912
2023-04-18T10:00:41.376Z,17.2151
2023-04-18T10:01:49.482Z,17.8494
2023-04-18T10:02:57.502Z,17.0549
2023-04-18T10:04:05.552Z,16.3105
2023-04-18T10:05:13.803Z,15.8784
2023-04-18T10:06:21.559Z,15.9779
2023-04-18T10:07:29.702Z,16.3463
2023-04-18T10:08:37.762Z,16.3216
2023-04-18T10:09:45.781Z,16.6485
2023-04-18T10:10:53.917Z,16.6860
2023-04-18T10:12:02.073Z,17.0693
2023-04-18T10:13:09.995Z,17.0001
2023-04-18T10:14:18.259Z,16.5032
2023-04-18T10:15:26.047Z,16.1881
2023-04-18T10:16:35.654Z,16.7536
2023-04-18T10:17:52.551Z,15.9981
2023-04-18T10:18:55.157Z,15.6364
2023-04-18T10:20:03.180Z,15.5049
2023-04-18T10:21:11.186Z,16.2361
2023-04-18T10:22:19.348Z,16.1887
2023-04-18T10:23:28.174Z,16.4399
2023-04-18T10:24:35.344Z,15.7590
2023-04-18T10:25:43.475Z,16.1316
2023-04-18T10:26:51.447Z,15.3546
2023-04-18T10:27:59.622Z,16.0545
2023-04-18T10:29:07.644Z,16.7958
2023-04-18T10:30:15.632Z,17.6236
2023-04-18T10:31:23.864Z,19.0830
2023-04-18T10:32:31.801Z,19.2748
2023-04-18T10:33:42.442Z,18.9462
2023-04-18T10:34:52.807Z,17.8718
2023-04-18T10:36:01.037Z,17.1643
2023-04-18T10:37:08.938Z,20.7024
2023-04-18T10:38:17.006Z,26.5826
2023-04-18T10:39:25.059Z,26.6886
2023-04-18T10:40:33.078Z,29.3909
2023-04-18T10:41:41.304Z,33.4462
2023-04-18T10:42:49.217Z,23.5818
2023-04-18T10:43:57.239Z,18.5394
2023-04-18T10:45:05.605Z,23.1399
2023-04-18T10:46:24.270Z,34.2671
2023-04-18T10:47:26.331Z,23.6302
2023-04-18T10:48:38.459Z,21.7010
2023-04-18T10:49:47.384Z,20.2275
2023-04-18T10:50:55.240Z,17.9438
2023-04-18T10:52:03.362Z,16.8803
2023-04-18T10:53:11.407Z,17.7621
2023-04-18T10:54:19.545Z,18.1448
2023-04-18T10:55:27.592Z,17.4711
2023-04-18T10:56:35.578Z,16.9065
2023-04-18T10:57:43.696Z,16.7647
2023-04-18T10:58:51.741Z,17.4496
2023-04-18T10:59:59.693Z,16.4624
2023-04-18T11:01:07.963Z,16.3127
2023-04-18T11:02:15.786Z,17.0449
2023-04-18T11:03:23.986Z,16.3657
2023-04-18T11:04:32.011Z,16.8965
2023-04-18T11:05:40.063Z,15.9707
2023-04-18T11:06:48.130Z,16.2071
2023-04-18T11:07:56.090Z,16.7770
2023-04-18T11:09:04.350Z,16.2882
2023-04-18T11:10:12.335Z,16.3525
2023-04-18T11:11:20.368Z,16.6013
2023-04-18T11:12:28.477Z,16.6568
2023-04-18T11:13:36.341Z,16.7106
2023-04-18T11:14:44.497Z,16.8058
2023-04-18T11:15:52.645Z,16.5292
2023-04-18T11:17:00.575Z,16.3515
2023-04-18T11:18:08.718Z,17.2031
2023-04-18T11:19:16.920Z,17.5998
2023-04-18T11:20:24.772Z,17.4700
2023-04-18T11:21:32.883Z,17.3521
2023-04-18T11:22:40.828Z,17.4573
2023-04-18T11:23:49.011Z,16.8701
2023-04-18T11:24:57.044Z,16.7745
2023-04-18T11:26:05.064Z,16.4896
2023-04-18T11:27:13.091Z,17.0516
2023-04-18T11:28:21.207Z,16.7715
2023-04-18T11:29:29.234Z,16.5035
2023-04-18T11:30:37.213Z,17.0046
2023-04-18T11:31:45.535Z,15.7805
2023-04-18T11:32:53.396Z,16.3882
2023-04-18T11:34:01.352Z,16.0386
2023-04-18T11:35:09.544Z,17.0333
2023-04-18T11:36:17.570Z,17.3150
2023-04-18T11:37:25.626Z,16.7908
2023-04-18T11:38:33.636Z,16.6224
2023-04-18T11:39:41.682Z,17.4176
2023-04-18T11:40:49.920Z,17.3500
2023-04-18T11:41:57.737Z,16.7609
2023-04-18T11:43:05.857Z,16.8265
2023-04-18T11:44:13.954Z,16.6754
2023-04-18T11:45:22.076Z,16.8182
2023-04-18T11:46:30.184Z,16.1584
2023-04-18T11:47:38.199Z,16.2816
2023-04-18T11:48:46.070Z,15.9362
2023-04-18T11:49:56.500Z,15.6186
2023-04-18T11:51:07.365Z,14.9992
2023-04-18T11:52:15.207Z,14.9353
2023-04-18T11:53:23.154Z,14.3419
2023-04-18T11:54:31.266Z,14.3321
2023-04-18T11:55:39.342Z,14.9972
2023-04-18T11:56:47.372Z,14.8412
2023-04-18T11:57:55.543Z,14.8907
2023-04-18T11:59:03.630Z,13.8731
2023-04-18T12:00:11.519Z,13.5139
2023-04-18T12:01:19.720Z,13.2046
2023-04-18T12:02:27.857Z,13.9924
2023-04-18T12:03:35.950Z,14.2256
2023-04-18T12:04:44.088Z,14.1367
2023-04-18T12:05:51.993Z,13.3648
2023-04-18T12:06:59.930Z,12.1238
2023-04-18T12:08:08.164Z,12.4276
2023-04-18T12:09:15.970Z,12.4267
2023-04-18T12:10:24.074Z,11.7691
2023-04-18T12:11:32.182Z,12.0264
2023-04-18T12:12:40.202Z,11.3245
2023-04-18T12:13:48.277Z,11.3289
2023-04-18T12:14:56.329Z,11.3005
2023-04-18T12:16:04.389Z,10.7487
2023-04-18T12:17:12.511Z,10.9363
2023-04-18T12:18:20.483Z,11.0010
2023-04-18T12:19:28.613Z,11.0666
2023-04-18T12:20:36.601Z,10.7505
2023-04-18T12:21:44.631Z,10.9794
2023-04-18T12:22:52.651Z,10.7537
2023-04-18T12:24:00.758Z,11.5610
2023-04-18T12:25:08.883Z,11.7787
2023-04-18T12:26:16.835Z,10.9990
2023-04-18T12:27:24.953Z,10.6790
2023-04-18T12:28:33.031Z,11.0382
2023-04-18T12:29:41.018Z,10.5610
2023-04-18T12:30:49.137Z,10.2968
2023-04-18T12:31:57.187Z,10.4086
2023-04-18T12:33:05.265Z,10.3207
2023-04-18T12:34:13.433Z,10.3675
2023-04-18T12:35:21.250Z,10.4813
2023-04-18T12:36:29.423Z,10.6748
2023-04-18T12:37:37.526Z,10.5357
2023-04-18T12:38:45.481Z,9.7496
2023-04-18T12:39:53.601Z,9.9728
2023-04-18T12:41:01.617Z,10.3202
2023-04-18T12:42:09.697Z,9.6077
2023-04-18T12:43:17.659Z,8.8965
2023-04-18T12:44:25.758Z,9.1802
2023-04-18T12:45:33.735Z,8.9682
2023-04-18T12:46:41.869Z,8.8689
2023-04-18T12:47:50.016Z,9.2256
2023-04-18T12:48:57.973Z,9.3091
2023-04-18T12:50:06.103Z,8.8073
2023-04-18T12:51:14.093Z,8.8368
2023-04-18T12:52:22.071Z,9.0662
2023-04-18T12:53:30.277Z,8.9349
2023-04-18T12:54:38.286Z,9.4684
2023-04-18T12:55:46.321Z,9.3247
2023-04-18T12:56:54.409Z,8.8528
2023-04-18T12:58:02.572Z,9.5054
2023-04-18T12:59:10.565Z,9.6019
2023-04-18T13:00:18.504Z,9.0044
2023-04-18T13:01:26.766Z,9.2112
2023-04-18T13:02:34.845Z,9.3677
2023-04-18T13:03:42.770Z,8.7564
2023-04-18T13:04:50.953Z,9.9629
2023-04-18T13:05:58.794Z,9.6001
2023-04-18T13:07:06.920Z,8.9913
2023-04-18T13:08:17.677Z,9.1607
2023-04-18T13:09:27.918Z,8.9263
2023-04-18T13:10:36.163Z,8.7095
2023-04-18T13:11:43.958Z,9.0557
2023-04-18T13:12:52.040Z,8.8887
2023-04-18T13:14:00.168Z,8.5185
2023-04-18T13:15:08.176Z,8.6646
2023-04-18T13:16:16.294Z,8.5478
2023-04-18T13:17:24.289Z,9.0529
2023-04-18T13:18:32.294Z,8.3263
2023-04-18T13:19:40.463Z,8.9769
2023-04-18T13:20:48.544Z,8.8747
2023-04-18T13:21:56.688Z,8.2361
2023-04-18T13:23:04.694Z,7.9173
2023-04-18T13:24:12.621Z,8.4738
2023-04-18T13:25:20.726Z,8.2199
2023-04-18T13:26:28.836Z,8.1095
2023-04-18T13:27:37.358Z,8.0965
2023-04-18T13:28:44.891Z,7.8741
2023-04-18T13:29:52.979Z,8.1870
2023-04-18T13:31:01.200Z,8.2681
2023-04-18T13:32:09.301Z,7.9159
2023-04-18T13:33:17.251Z,8.5073
2023-04-18T13:34:25.399Z,7.7682
2023-04-18T13:35:33.325Z,7.9378
2023-04-18T13:36:41.402Z,7.7568
2023-04-18T13:37:49.552Z,7.0910
2023-04-18T13:38:57.523Z,7.5271
2023-04-18T13:40:05.589Z,7.3988
2023-04-18T13:41:13.911Z,7.0004
2023-04-18T13:42:21.701Z,6.6708
2023-04-18T13:43:29.789Z,6.7410
2023-04-18T13:44:37.765Z,7.0362
2023-04-18T13:45:46.067Z,7.0335
2023-04-18T13:46:53.867Z,6.7714
2023-04-18T13:48:02.050Z,7.3099
2023-04-18T13:49:10.125Z,7.5369
2023-04-18T13:50:18.147Z,7.5531
2023-04-18T13:51:26.205Z,7.2243